Time;durP1;ratioP1;P1;durP2;ratioP2;P2;SDS_P1;SDS_P2;PMS_P1;PMS_P2;Temp;Humidity;BMP_temperature;BMP_pressure;BME280_temperature;BME280_humidity;BME280_pressure;Samples;Min_cycle;Max_cycle;Signal;HPM_P1;HPM_P2
2022/12/28 00:12:20;;;;;;;0.87;0.87;;;;;;;9.10;100.00;99566.34;31490964;28;20139;-74
2022/12/28 00:27:22;;;;;;;1.67;1.57;;;;;;;8.94;100.00;99628.59;31480868;28;20057;-74
2022/12/28 00:42:24;;;;;;;0.70;0.70;;;;;;;8.86;100.00;99676.69;31488539;28;20045;-73
2022/12/28 00:57:26;;;;;;;1.33;1.23;;;;;;;8.29;100.00;99708.59;31481591;28;20382;-73
2022/12/28 01:12:28;;;;;;;0.90;0.90;;;;;;;8.24;100.00;99699.06;31477491;28;20555;-74
2022/12/28 01:27:38;;;;;;;0.60;0.60;;;;;;;8.02;100.00;99692.47;31472102;28;20056;-73
2022/12/28 01:42:40;;;;;;;1.57;1.47;;;;;;;7.86;100.00;99720.88;31486688;28;20056;-74
2022/12/28 01:58:13;;;;;;;5.43;3.30;;;;;;;7.90;100.00;99752.47;31466758;28;20087;-73
2022/12/28 02:13:16;;;;;;;4.70;2.33;;;;;;;7.72;100.00;99839.97;31466078;28;20202;-76
2022/12/28 02:28:55;;;;;;;6.53;2.57;;;;;;;7.60;100.00;99870.19;31445162;28;20063;-74
2022/12/28 02:43:58;;;;;;;8.90;2.80;;;;;;;7.36;100.00;99871.22;31483595;28;20114;-71
2022/12/28 02:59:04;;;;;;;5.00;2.37;;;;;;;7.59;100.00;99852.47;31470173;28;20052;-73
2022/12/28 03:14:09;;;;;;;4.13;2.30;;;;;;;7.41;100.00;99878.91;31466741;28;20057;-74
2022/12/28 03:44:37;;;;;;;7.07;2.30;;;;;;;6.68;100.00;99936.56;31493740;28;20094;-73
2022/12/28 03:59:39;;;;;;;3.47;1.80;;;;;;;6.97;100.00;99923.66;31485337;28;20110;-73
2022/12/28 04:14:41;;;;;;;3.23;1.87;;;;;;;6.72;100.00;99958.91;31472581;28;20052;-74
2022/12/28 04:29:43;;;;;;;6.10;2.87;;;;;;;6.46;100.00;99973.69;31477944;28;20052;-73
2022/12/28 04:44:45;;;;;;;10.53;3.60;;;;;;;6.26;100.00;99994.19;31474276;28;20048;-73
2022/12/28 04:59:47;;;;;;;5.37;2.37;;;;;;;6.09;100.00;100011.22;31469210;28;20052;-71
2022/12/28 05:14:49;;;;;;;9.60;2.67;;;;;;;6.15;100.00;100007.72;31473927;28;20048;-72
2022/12/28 05:29:50;;;;;;;5.97;2.17;;;;;;;6.23;100.00;100023.88;31481181;28;20119;-73
2022/12/28 05:44:52;;;;;;;11.90;3.33;;;;;;;6.29;100.00;100022.31;31476537;28;20053;-73
2022/12/28 05:59:54;;;;;;;13.73;5.47;;;;;;;6.52;100.00;100033.38;31476835;28;20394;-72
2022/12/28 06:14:56;;;;;;;10.20;2.80;;;;;;;7.79;100.00;100110.13;31457984;28;20052;-73
2022/12/28 06:29:58;;;;;;;7.77;3.13;;;;;;;9.43;100.00;100178.72;31470641;28;20106;-74
2022/12/28 06:45:00;;;;;;;6.27;2.00;;;;;;;10.51;89.65;100269.66;31470582;28;20045;-73
2022/12/28 07:00:03;;;;;;;6.30;2.30;;;;;;;8.91;88.29;100306.22;31458702;28;20087;-74
2022/12/28 07:15:05;;;;;;;4.40;2.50;;;;;;;8.74;94.34;100290.91;31479965;28;20040;-74
2022/12/28 07:30:07;;;;;;;6.60;2.13;;;;;;;10.37;86.19;100370.31;31424739;28;20060;-73
2022/12/28 07:45:11;;;;;;;4.43;2.30;;;;;;;9.28;86.89;100405.66;31469635;28;20056;-74
2022/12/28 08:00:14;;;;;;;3.13;2.33;;;;;;;10.91;81.33;100449.00;31474352;28;20147;-76
2022/12/28 08:15:16;;;;;;;4.10;2.20;;;;;;;14.57;64.05;100547.19;31477427;28;20106;-75
2022/12/28 08:30:18;;;;;;;5.63;2.10;;;;;;;14.34;55.42;100619.22;31477602;28;20122;-76
2022/12/28 08:45:20;;;;;;;5.97;1.53;;;;;;;15.11;45.52;100655.75;31495974;28;20044;-76
2022/12/28 09:00:22;;;;;;;4.70;2.20;;;;;;;12.13;53.32;100652.50;31459737;28;20060;-74
2022/12/28 09:15:24;;;;;;;5.83;2.13;;;;;;;10.44;59.89;100603.59;31459220;28;20053;-73
2022/12/28 09:30:26;;;;;;;8.93;2.80;;;;;;;9.83;64.47;100554.59;31506744;28;20055;-82
2022/12/28 09:45:30;;;;;;;9.67;4.13;;;;;;;9.58;69.84;100551.34;31506137;28;20406;-82
2022/12/28 10:00:40;;;;;;;89.87;39.70;;;;;;;9.66;72.33;100560.97;31473209;28;20123;-81
2022/12/28 10:15:42;;;;;;;5.40;3.13;;;;;;;9.22;73.50;100583.34;31467749;28;20581;-83
2022/12/28 10:31:06;;;;;;;6.03;3.10;;;;;;;9.41;75.39;100609.16;31457631;28;20498;-78
2022/12/28 10:46:21;;;;;;;13.07;4.37;;;;;;;8.79;78.36;100621.47;31480210;28;20615;-76
2022/12/28 11:01:27;;;;;;;12.00;4.50;;;;;;;8.92;82.07;100638.06;31450465;28;20152;-78
2022/12/28 11:16:34;;;;;;;7.97;5.37;;;;;;;8.99;84.04;100635.31;31414589;28;20136;-74
2022/12/28 11:32:02;;;;;;;28.60;12.27;;;;;;;9.05;86.24;100663.53;31500565;28;20059;-75
2022/12/28 11:47:16;;;;;;;11.37;4.97;;;;;;;9.16;83.07;100706.84;31440718;28;20558;-77
2022/12/28 12:02:18;;;;;;;8.57;4.43;;;;;;;8.98;77.24;100723.13;31508028;28;20044;-75
2022/12/28 12:17:30;;;;;;;8.07;4.90;;;;;;;9.51;75.17;100747.28;31472366;28;20045;-75
2022/12/28 12:32:45;;;;;;;9.10;4.80;;;;;;;9.44;78.86;100773.69;31431424;28;20111;-76
2022/12/28 12:48:08;;;;;;;12.80;4.73;;;;;;;8.52;79.66;100799.78;31376602;28;20103;-72
2022/12/28 13:03:22;;;;;;;6.83;4.13;;;;;;;8.04;97.34;100809.38;31422793;28;20049;-72
2022/12/28 13:18:24;;;;;;;8.13;5.17;;;;;;;7.86;100.00;100825.56;31494479;28;20056;-74
2022/12/28 13:33:54;;;;;;;9.47;4.23;;;;;;;7.75;100.00;100860.69;31492695;28;20048;-82
2022/12/28 13:48:58;;;;;;;8.03;4.83;;;;;;;7.62;99.20;100889.16;31504340;28;20066;-89
2022/12/28 14:04:05;;;;;;;9.00;4.10;;;;;;;7.68;100.00;100913.91;31492160;28;20405;-83
2022/12/28 14:19:27;;;;;;;;;;;;;;;7.95;100.00;100926.00;31481890;28;20049;-82
2022/12/28 14:34:33;;;;;;;9.53;5.30;;;;;;;7.80;100.00;100949.47;31488957;28;20007;-81
2022/12/28 14:49:35;;;;;;;9.13;3.57;;;;;;;7.71;95.15;100976.09;31516363;28;20476;-84
2022/12/28 15:04:40;;;;;;;9.73;4.00;;;;;;;7.53;90.34;101026.56;31489566;28;20416;-85
2022/12/28 15:19:43;;;;;;;9.80;4.30;;;;;;;7.25;90.54;101051.41;31513147;28;20136;-84
2022/12/28 15:34:45;;;;;;;4.77;2.73;;;;;;;6.82;86.58;101064.47;31503219;28;20057;-88
2022/12/28 15:49:47;;;;;;;4.10;2.47;;;;;;;6.89;85.07;101079.97;31483625;28;20072;-84
2022/12/28 16:04:54;;;;;;;6.17;2.13;;;;;;;6.76;83.89;101103.72;31559478;28;20072;-88
2022/12/28 16:19:56;;;;;;;3.53;2.20;;;;;;;6.91;75.61;101115.47;31528369;28;20135;-89
2022/12/28 16:34:58;;;;;;;19.40;8.63;;;;;;;7.26;72.86;101135.91;31467060;28;20052;-72
2022/12/28 17:11:38;;;;;;;5.03;1.97;;;;;;;7.41;69.40;101180.81;31514854;27;20727;-84
2022/12/28 17:26:40;;;;;;;3.43;1.70;;;;;;;6.93;70.39;101180.66;31514544;28;20493;-83
2022/12/28 17:41:42;;;;;;;6.27;2.53;;;;;;;6.80;71.51;101185.53;31508190;28;20091;-86
2022/12/28 17:56:44;;;;;;;6.13;2.50;;;;;;;6.76;70.06;101189.31;31502565;28;20444;-74
2022/12/28 18:11:46;;;;;;;5.10;2.80;;;;;;;6.45;71.59;101191.19;31403192;28;20048;-76
2022/12/28 18:26:48;;;;;;;8.70;3.47;;;;;;;6.50;77.06;101201.69;31417696;28;20056;-76
2022/12/28 18:41:50;;;;;;;7.30;3.50;;;;;;;6.52;81.40;101189.75;31396726;28;20110;-77
2022/12/28 18:56:52;;;;;;;7.20;4.00;;;;;;;6.56;84.05;101179.78;31395352;28;20091;-76
2022/12/28 22:28:35;;;;;;;13.20;6.77;;;;;;;5.06;100.00;100808.53;31702483;27;20396;-73
2022/12/28 22:43:37;;;;;;;13.27;7.17;;;;;;;5.29;100.00;100877.66;31673887;28;20055;-74
2022/12/28 22:58:39;;;;;;;15.80;7.97;;;;;;;4.70;100.00;100900.63;31660906;28;20480;-75
2022/12/28 23:13:41;;;;;;;23.93;11.70;;;;;;;4.59;100.00;100915.78;31667399;28;20054;-75
2022/12/28 23:28:43;;;;;;;14.10;7.73;;;;;;;4.50;100.00;100929.44;31594891;28;20044;-74
2022/12/28 23:43:45;;;;;;;14.60;8.23;;;;;;;4.43;100.00;100919.34;31578510;28;20109;-75
2022/12/28 23:58:50;;;;;;;15.93;9.13;;;;;;;4.21;100.00;100938.91;31568778;28;20105;-75
